createdAt,value
2019-04-03T00:00:35.595Z,95933.60
2019-04-03T00:03:06.823Z,95934.62
2019-04-03T00:05:38.050Z,95935.89
2019-04-03T00:08:09.405Z,95938.95
2019-04-03T00:10:40.691Z,95934.97
2019-04-03T00:13:11.869Z,95934.80
2019-04-03T00:15:44.626Z,95934.05
2019-04-03T00:18:16.857Z,95936.17
2019-04-03T00:20:48.819Z,95934.20
2019-04-03T00:23:22.361Z,95929.84
2019-04-03T00:25:54.444Z,95935.67
2019-04-03T00:28:25.773Z,95941.93
2019-04-03T00:30:57.544Z,95947.44
2019-04-03T00:33:28.891Z,95939.36
2019-04-03T00:36:00.286Z,95935.11
2019-04-03T00:38:31.511Z,95925.94
2019-04-03T00:41:02.992Z,95919.47
2019-04-03T00:43:34.196Z,95922.30
2019-04-03T00:46:06.137Z,95921.70
2019-04-03T00:48:37.364Z,95922.08
2019-04-03T00:51:08.843Z,95916.00
2019-04-03T00:53:39.999Z,95908.14
2019-04-03T00:56:11.395Z,95904.98
2019-04-03T00:58:44.641Z,95901.97
2019-04-03T01:01:15.879Z,95900.59
2019-04-03T01:03:47.151Z,95899.27
2019-04-03T01:06:18.460Z,95889.73
2019-04-03T01:08:49.609Z,95892.11
2019-04-03T01:11:20.911Z,95888.98
2019-04-03T01:13:52.591Z,95897.86
2019-04-03T01:16:23.880Z,95893.59
2019-04-03T01:18:55.030Z,95884.31
2019-04-03T01:21:26.393Z,95880.41
2019-04-03T01:23:57.997Z,95878.75
2019-04-03T01:26:29.483Z,95885.42
2019-04-03T01:29:00.729Z,95873.32
2019-04-03T01:31:32.058Z,95873.18
2019-04-03T01:34:06.474Z,95869.09
2019-04-03T01:36:37.714Z,95869.24
2019-04-03T01:39:09.405Z,95865.05
2019-04-03T01:41:40.589Z,95858.20
2019-04-03T01:44:12.123Z,95858.20
2019-04-03T01:46:43.350Z,95860.66
2019-04-03T01:49:14.815Z,95858.25
2019-04-03T01:51:46.360Z,95855.88
2019-04-03T01:54:17.674Z,95855.14
2019-04-03T01:56:49.084Z,95850.92
2019-04-03T01:59:20.688Z,95848.40
2019-04-03T02:01:52.224Z,95852.31
2019-04-03T02:04:23.628Z,95848.05
2019-04-03T02:06:55.212Z,95852.33
2019-04-03T02:09:26.724Z,95848.52
2019-04-03T02:11:58.305Z,95837.30
2019-04-03T02:14:29.888Z,95840.63
2019-04-03T02:17:01.067Z,95841.00
2019-04-03T02:19:32.679Z,95849.88
2019-04-03T02:22:03.967Z,95850.56
2019-04-03T02:24:35.222Z,95852.30
2019-04-03T02:27:07.014Z,95849.92
2019-04-03T02:29:39.855Z,95855.61
2019-04-03T02:32:11.771Z,95851.84
2019-04-03T02:34:43.164Z,95858.36
2019-04-03T02:37:16.978Z,95858.91
2019-04-03T02:39:48.200Z,95860.25
2019-04-03T02:42:20.182Z,95861.55
2019-04-03T02:44:51.914Z,95864.55
2019-04-03T02:47:23.848Z,95860.64
2019-04-03T02:49:55.242Z,95857.93
2019-04-03T02:52:27.715Z,95861.20
2019-04-03T02:54:59.375Z,95852.91
2019-04-03T02:57:30.902Z,95842.91
2019-04-03T03:00:02.679Z,95850.89
2019-04-03T03:02:34.213Z,95848.22
2019-04-03T03:05:06.327Z,95851.24
2019-04-03T03:07:37.737Z,95849.61
2019-04-03T03:10:09.483Z,95849.69
2019-04-03T03:12:42.318Z,95847.59
2019-04-03T03:15:13.922Z,95848.44
2019-04-03T03:17:46.219Z,95849.22
2019-04-03T03:20:22.234Z,95844.61
2019-04-03T03:22:55.334Z,95840.77
2019-04-03T03:25:27.454Z,95842.45
2019-04-03T03:27:59.920Z,95838.89
2019-04-03T03:30:41.055Z,95837.49
2019-04-03T03:33:33.463Z,95833.86
2019-04-03T03:35:45.276Z,95830.13
2019-04-03T03:38:16.988Z,95827.06
2019-04-03T03:40:49.425Z,95826.67
2019-04-03T03:43:22.531Z,95819.05
2019-04-03T03:45:54.816Z,95814.33
2019-04-03T03:48:26.629Z,95810.06
2019-04-03T03:51:00.952Z,95817.01
2019-04-03T03:53:34.508Z,95813.28
2019-04-03T03:56:06.666Z,95809.92
2019-04-03T03:58:38.946Z,95809.97
2019-04-03T04:01:10.821Z,95805.38
2019-04-03T04:03:42.527Z,95801.50
2019-04-03T04:06:14.779Z,95799.73
2019-04-03T04:08:46.241Z,95794.56
2019-04-03T04:11:17.825Z,95779.42
2019-04-03T04:13:50.023Z,95780.17
2019-04-03T04:16:23.163Z,95781.84
2019-04-03T04:18:57.264Z,95790.83
2019-04-03T04:21:28.091Z,95797.68
2019-04-03T04:23:59.803Z,95799.48
2019-04-03T04:26:32.369Z,95796.15
2019-04-03T04:29:04.490Z,95803.94
2019-04-03T04:31:36.142Z,95805.20
2019-04-03T04:34:07.687Z,95804.23
2019-04-03T04:36:39.356Z,95807.33
2019-04-03T04:39:10.907Z,95810.84
2019-04-03T04:41:43.200Z,95810.88
2019-04-03T04:44:15.191Z,95807.47
2019-04-03T04:46:46.774Z,95808.28
2019-04-03T04:49:18.332Z,95799.27
2019-04-03T04:51:50.430Z,95789.30
2019-04-03T04:54:21.895Z,95796.42
2019-04-03T04:56:53.437Z,95802.25
2019-04-03T04:59:25.149Z,95807.40
2019-04-03T05:01:56.528Z,95802.36
2019-04-03T05:04:28.040Z,95800.23
2019-04-03T05:07:00.181Z,95800.15
2019-04-03T05:09:34.629Z,95807.89
2019-04-03T05:12:05.511Z,95797.16
2019-04-03T05:14:37.022Z,95791.57
2019-04-03T05:17:09.908Z,95797.50
2019-04-03T05:19:41.357Z,95807.66
2019-04-03T05:22:13.067Z,95795.97
2019-04-03T05:24:44.848Z,95787.36
2019-04-03T05:27:16.944Z,95780.52
2019-04-03T05:29:48.753Z,95767.67
2019-04-03T05:32:20.321Z,95765.42
2019-04-03T05:34:51.755Z,95752.55
2019-04-03T05:37:24.563Z,95757.39
2019-04-03T05:39:56.202Z,95767.72
2019-04-03T05:42:29.223Z,95774.00
2019-04-03T05:45:03.639Z,95786.31
2019-04-03T05:47:35.110Z,95793.91
2019-04-03T05:50:07.203Z,95799.03
2019-04-03T05:52:38.749Z,95803.86
2019-04-03T05:55:10.795Z,95807.62
2019-04-03T05:57:45.677Z,95801.09
2019-04-03T06:00:17.159Z,95806.80
2019-04-03T06:02:48.649Z,95801.40
2019-04-03T06:05:20.361Z,95792.60
2019-04-03T06:07:51.983Z,95792.75
2019-04-03T06:10:23.680Z,95793.79
2019-04-03T06:12:55.066Z,95790.20
2019-04-03T06:15:27.259Z,95792.94
2019-04-03T06:17:58.628Z,95790.12
2019-04-03T06:20:30.321Z,95796.76
2019-04-03T06:23:02.115Z,95790.42
2019-04-03T06:25:33.991Z,95804.58
2019-04-03T06:28:05.439Z,95802.61
2019-04-03T06:30:36.950Z,95810.92
2019-04-03T06:33:08.281Z,95802.88
2019-04-03T06:35:39.805Z,95799.41
2019-04-03T06:38:11.357Z,95797.17
2019-04-03T06:40:42.915Z,95783.59
2019-04-03T06:43:15.337Z,95790.09
2019-04-03T06:45:47.980Z,95782.75
2019-04-03T06:48:20.065Z,95783.78
2019-04-03T06:50:52.044Z,95779.48
2019-04-03T06:53:27.286Z,95772.22
2019-04-03T06:55:57.068Z,95770.44
2019-04-03T06:58:37.302Z,95775.95
2019-04-03T07:01:02.300Z,95771.16
2019-04-03T07:03:34.319Z,95766.41
2019-04-03T07:06:06.632Z,95770.78
2019-04-03T07:08:40.929Z,95768.45
2019-04-03T07:11:22.819Z,95767.72
2019-04-03T07:13:44.918Z,95759.29
2019-04-03T07:16:16.684Z,95760.12
2019-04-03T07:18:48.412Z,95758.45
2019-04-03T07:21:20.699Z,95747.09
2019-04-03T07:23:53.046Z,95748.32
2019-04-03T07:26:24.520Z,95736.42
2019-04-03T07:28:56.738Z,95741.63
2019-04-03T07:31:29.590Z,95745.77
2019-04-03T07:34:02.979Z,95751.50
2019-04-03T07:36:34.329Z,95754.50
2019-04-03T07:39:11.013Z,95758.94
2019-04-03T07:41:42.608Z,95756.03
2019-04-03T07:44:14.362Z,95753.34
2019-04-03T07:46:46.220Z,95747.50
2019-04-03T07:49:17.780Z,95750.67
2019-04-03T07:51:49.828Z,95751.14
2019-04-03T07:54:22.454Z,95749.70
2019-04-03T07:56:56.824Z,95740.91
2019-04-03T07:59:27.191Z,95740.00
2019-04-03T08:01:58.672Z,95729.75
2019-04-03T08:04:30.044Z,95732.47
2019-04-03T08:07:01.313Z,95722.14
2019-04-03T08:09:32.694Z,95722.16
2019-04-03T08:12:04.593Z,95721.95
2019-04-03T08:14:35.846Z,95707.30
2019-04-03T08:17:07.847Z,95696.98
2019-04-03T08:19:39.507Z,95701.90
2019-04-03T08:22:11.559Z,95696.98
2019-04-03T08:24:43.009Z,95689.17
2019-04-03T08:27:14.901Z,95690.97
2019-04-03T08:29:46.678Z,95686.34
2019-04-03T08:32:18.418Z,95698.00
2019-04-03T08:34:49.645Z,95700.45
2019-04-03T08:37:29.603Z,95705.53
2019-04-03T08:39:57.314Z,95697.50
2019-04-03T08:42:28.616Z,95698.19
2019-04-03T08:45:01.001Z,95697.66
2019-04-03T08:47:32.454Z,95694.06
2019-04-03T08:50:05.079Z,95686.66
2019-04-03T08:52:37.096Z,95683.96
2019-04-03T08:55:12.896Z,95684.01
2019-04-03T08:57:45.809Z,95688.47
2019-04-03T09:00:17.329Z,95689.52
2019-04-03T09:02:49.097Z,95679.51
2019-04-03T09:05:20.623Z,95671.67
2019-04-03T09:07:51.880Z,95675.41
2019-04-03T09:10:23.607Z,95673.00
2019-04-03T09:12:55.245Z,95658.81
2019-04-03T09:15:28.265Z,95659.75
2019-04-03T09:17:59.692Z,95651.50
2019-04-03T09:20:30.917Z,95652.56
2019-04-03T09:23:02.350Z,95645.29
2019-04-03T09:25:33.816Z,95650.18
2019-04-03T09:28:06.210Z,95641.34
2019-04-03T09:30:37.968Z,95651.24
2019-04-03T09:33:09.337Z,95632.90
2019-04-03T09:35:42.810Z,95634.66
2019-04-03T09:38:14.497Z,95633.02
2019-04-03T09:40:48.330Z,95625.28
2019-04-03T09:43:20.104Z,95633.62
2019-04-03T09:45:52.338Z,95629.16
2019-04-03T09:48:25.006Z,95621.30
2019-04-03T09:50:56.522Z,95609.95
2019-04-03T09:53:27.901Z,95610.55
2019-04-03T09:55:59.249Z,95606.13
2019-04-03T09:58:34.577Z,95607.89
2019-04-03T10:01:05.245Z,95605.09
2019-04-03T10:03:36.558Z,95593.62
2019-04-03T10:06:07.990Z,95589.00
2019-04-03T10:08:41.069Z,95594.38
2019-04-03T10:11:14.917Z,95582.58
2019-04-03T10:13:46.480Z,95590.08
2019-04-03T10:16:18.030Z,95584.70
2019-04-03T10:18:49.410Z,95583.53
2019-04-03T10:21:21.323Z,95571.88
2019-04-03T10:23:52.793Z,95572.76
2019-04-03T10:26:24.393Z,95573.52
2019-04-03T10:28:55.936Z,95563.94
2019-04-03T10:31:27.373Z,95557.19
2019-04-03T10:33:58.611Z,95553.80
2019-04-03T10:36:30.736Z,95547.34
2019-04-03T10:39:02.260Z,95545.05
2019-04-03T10:41:34.072Z,95538.88
2019-04-03T10:44:06.702Z,95534.52
2019-04-03T10:46:39.305Z,95533.73
2019-04-03T10:49:10.735Z,95524.91
2019-04-03T10:51:42.184Z,95529.09
2019-04-03T10:54:13.589Z,95527.29
2019-04-03T10:56:45.194Z,95528.02
2019-04-03T10:59:18.413Z,95532.11
2019-04-03T11:01:50.093Z,95522.02
2019-04-03T11:04:21.851Z,95528.16
2019-04-03T11:06:53.514Z,95513.22
2019-04-03T11:09:24.896Z,95511.09
2019-04-03T11:11:58.280Z,95506.80
2019-04-03T11:14:29.637Z,95501.95
2019-04-03T11:17:01.281Z,95501.48
2019-04-03T11:19:32.829Z,95491.34
2019-04-03T11:22:04.250Z,95488.57
2019-04-03T11:24:39.791Z,95485.83
2019-04-03T11:27:10.192Z,95481.06
2019-04-03T11:29:42.914Z,95483.77
2019-04-03T11:32:15.098Z,95491.11
2019-04-03T11:34:48.987Z,95484.02
2019-04-03T11:37:19.832Z,95476.03
2019-04-03T11:40:01.927Z,95477.92
2019-04-03T11:42:28.477Z,95468.16
2019-04-03T11:44:57.388Z,95464.94
2019-04-03T11:47:29.114Z,95462.91
2019-04-03T11:50:00.362Z,95458.21
2019-04-03T11:52:31.969Z,95447.14
2019-04-03T11:55:03.631Z,95446.44
2019-04-03T11:57:35.378Z,95437.92
2019-04-03T12:00:13.785Z,95437.31
2019-04-03T12:02:45.435Z,95428.53
2019-04-03T12:05:21.014Z,95425.16
2019-04-03T12:07:52.256Z,95424.44
2019-04-03T12:10:25.518Z,95416.53
2019-04-03T12:12:57.152Z,95406.91
2019-04-03T12:15:29.201Z,95407.20
2019-04-03T12:18:01.671Z,95406.84
2019-04-03T12:20:34.180Z,95408.25
2019-04-03T12:23:05.525Z,95396.47
2019-04-03T12:25:39.546Z,95408.78
2019-04-03T12:28:10.971Z,95399.36
2019-04-03T12:30:42.588Z,95401.39
2019-04-03T12:33:14.316Z,95384.61
2019-04-03T12:35:46.192Z,95379.83
2019-04-03T12:38:20.129Z,95379.84
2019-04-03T12:40:51.749Z,95380.63
2019-04-03T12:43:23.116Z,95374.90
2019-04-03T12:45:56.152Z,95374.53
2019-04-03T12:48:28.685Z,95369.72
2019-04-03T12:51:00.300Z,95368.94
2019-04-03T12:53:31.848Z,95373.74
2019-04-03T12:56:03.304Z,95379.46
2019-04-03T12:58:36.405Z,95366.39
2019-04-03T13:01:10.798Z,95365.30
2019-04-03T13:03:41.351Z,95358.91
2019-04-03T13:06:12.602Z,95352.25
2019-04-03T13:08:44.258Z,95345.15
2019-04-03T13:11:18.677Z,95340.64
2019-04-03T13:13:48.680Z,95345.16
2019-04-03T13:16:22.247Z,95330.87
2019-04-03T13:18:53.136Z,95331.03
2019-04-03T13:21:24.486Z,95327.88
2019-04-03T13:23:55.769Z,95321.23
2019-04-03T13:26:27.320Z,95321.00
2019-04-03T13:28:59.083Z,95313.09
2019-04-03T13:31:30.503Z,95314.92
2019-04-03T13:34:02.507Z,95305.41
2019-04-03T13:36:33.865Z,95298.73
2019-04-03T13:39:07.866Z,95301.83
2019-04-03T13:41:41.659Z,95297.73
2019-04-03T13:44:12.348Z,95294.59
2019-04-03T13:46:44.190Z,95285.51
2019-04-03T13:49:18.449Z,95280.91
2019-04-03T13:51:48.903Z,95280.45
2019-04-03T13:54:20.608Z,95282.37
2019-04-03T13:56:53.235Z,95280.22
2019-04-03T13:59:26.571Z,95279.09
2019-04-03T14:01:58.585Z,95271.80
2019-04-03T14:04:30.657Z,95265.61
2019-04-03T14:07:03.446Z,95259.59
2019-04-03T14:09:36.379Z,95257.45
2019-04-03T14:12:07.889Z,95258.14
2019-04-03T14:14:39.625Z,95247.42
2019-04-03T14:17:13.621Z,95239.63
2019-04-03T14:19:48.434Z,95239.07
2019-04-03T14:22:17.828Z,95234.05
2019-04-03T14:24:52.158Z,95227.08
2019-04-03T14:27:26.770Z,95221.16
2019-04-03T14:29:58.500Z,95220.16
2019-04-03T14:32:29.009Z,95211.92
2019-04-03T14:35:10.279Z,95203.13
2019-04-03T14:37:34.058Z,95189.09
2019-04-03T14:40:06.660Z,95181.50
2019-04-03T14:42:38.628Z,95188.84
2019-04-03T14:45:14.441Z,95185.76
2019-04-03T14:47:45.736Z,95180.67
2019-04-03T14:50:17.332Z,95180.77
2019-04-03T14:52:49.506Z,95182.23
2019-04-03T14:55:22.950Z,95179.96
2019-04-03T14:57:55.819Z,95170.08
2019-04-03T15:00:30.865Z,95169.30
2019-04-03T15:03:03.897Z,95165.80
2019-04-03T15:05:34.353Z,95158.94
2019-04-03T15:08:06.240Z,95148.66
2019-04-03T15:10:37.810Z,95147.39
2019-04-03T15:13:12.632Z,95140.72
2019-04-03T15:15:42.730Z,95147.94
2019-04-03T15:18:14.230Z,95145.77
2019-04-03T15:20:48.697Z,95138.77
2019-04-03T15:23:19.218Z,95133.15
2019-04-03T15:25:52.756Z,95134.56
2019-04-03T15:28:24.036Z,95120.20
2019-04-03T15:30:55.858Z,95126.80
2019-04-03T15:33:27.454Z,95127.03
2019-04-03T15:35:59.191Z,95127.82
2019-04-03T15:38:30.725Z,95121.28
2019-04-03T15:41:03.496Z,95120.36
2019-04-03T15:43:34.962Z,95118.48
2019-04-03T15:46:06.537Z,95110.91
2019-04-03T15:48:39.979Z,95107.27
2019-04-03T15:51:11.438Z,95106.50
2019-04-03T15:53:43.845Z,95110.91
2019-04-03T15:56:16.114Z,95108.75
2019-04-03T15:58:49.504Z,95103.23
2019-04-03T16:01:20.808Z,95102.48
2019-04-03T16:03:52.432Z,95103.86
2019-04-03T16:06:23.953Z,95094.52
2019-04-03T16:08:59.933Z,95087.40
2019-04-03T16:11:49.893Z,95081.42
2019-04-03T16:14:21.425Z,95084.39
2019-04-03T16:16:53.014Z,95077.06
2019-04-03T16:19:24.778Z,95075.55
2019-04-03T16:21:58.180Z,95078.44
2019-04-03T16:24:30.161Z,95071.14
2019-04-03T16:27:02.186Z,95076.86
2019-04-03T16:29:33.726Z,95072.07
2019-04-03T16:32:05.745Z,95074.11
2019-04-03T16:34:40.046Z,95066.98
2019-04-03T16:37:10.635Z,95061.01
2019-04-03T16:39:42.321Z,95068.06
2019-04-03T16:42:15.611Z,95065.88
2019-04-03T16:44:48.084Z,95062.09
2019-04-03T16:47:20.770Z,95064.28
2019-04-03T16:49:54.938Z,95062.00
2019-04-03T16:52:26.664Z,95062.17
2019-04-03T16:54:59.061Z,95068.14
2019-04-03T16:57:31.526Z,95074.22
2019-04-03T17:00:02.943Z,95073.76
2019-04-03T17:02:35.697Z,95065.75
2019-04-03T17:05:10.479Z,95070.63
2019-04-03T17:07:41.401Z,95065.88
2019-04-03T17:10:13.979Z,95063.44
2019-04-03T17:12:46.270Z,95073.27
2019-04-03T17:15:19.058Z,95074.84
2019-04-03T17:17:50.914Z,95069.52
2019-04-03T17:20:24.240Z,95077.22
2019-04-03T17:22:56.165Z,95063.77
2019-04-03T17:25:38.224Z,95066.61
2019-04-03T17:28:08.002Z,95065.66
2019-04-03T17:30:34.687Z,95063.06
2019-04-03T17:33:06.458Z,95062.56
2019-04-03T17:35:38.866Z,95061.86
2019-04-03T17:38:10.242Z,95057.02
2019-04-03T17:40:41.811Z,95063.59
2019-04-03T17:43:13.926Z,95061.23
2019-04-03T17:45:46.970Z,95066.09
2019-04-03T17:48:18.573Z,95061.81
2019-04-03T17:50:50.102Z,95064.55
2019-04-03T17:53:21.970Z,95062.64
2019-04-03T17:55:53.322Z,95065.03
2019-04-03T17:58:24.852Z,95074.18
2019-04-03T18:00:56.310Z,95071.89
2019-04-03T18:03:27.749Z,95070.66
2019-04-03T18:05:59.178Z,95073.23
2019-04-03T18:08:32.670Z,95078.89
2019-04-03T18:11:05.086Z,95082.24
2019-04-03T18:13:36.486Z,95086.08
2019-04-03T18:16:08.438Z,95080.63
2019-04-03T18:18:40.141Z,95086.92
2019-04-03T18:21:13.035Z,95091.38
2019-04-03T18:23:45.608Z,95081.92
2019-04-03T18:26:17.186Z,95088.49
2019-04-03T18:28:48.597Z,95088.19
2019-04-03T18:31:20.284Z,95082.09
2019-04-03T18:33:51.700Z,95090.00
2019-04-03T18:36:23.280Z,95088.24
2019-04-03T18:38:54.698Z,95085.22
2019-04-03T18:41:26.061Z,95089.18
2019-04-03T18:43:57.557Z,95082.84
2019-04-03T18:46:32.499Z,95081.14
2019-04-03T18:49:02.455Z,95078.99
2019-04-03T18:51:36.453Z,95086.26
2019-04-03T18:54:07.225Z,95093.48
2019-04-03T18:56:38.539Z,95097.22
2019-04-03T18:59:10.071Z,95099.48
2019-04-03T19:01:41.624Z,95111.00
2019-04-03T19:04:13.495Z,95119.02
2019-04-03T19:06:45.405Z,95129.45
2019-04-03T19:09:17.201Z,95131.97
2019-04-03T19:11:51.321Z,95129.98
2019-04-03T19:14:27.637Z,95142.88
2019-04-03T19:16:56.601Z,95144.42
2019-04-03T19:19:29.778Z,95144.95
2019-04-03T19:22:01.173Z,95150.58
2019-04-03T19:24:32.896Z,95143.64
2019-04-03T19:27:04.822Z,95143.74
2019-04-03T19:29:36.368Z,95149.37
2019-04-03T19:32:07.861Z,95153.94
2019-04-03T19:34:39.498Z,95152.36
2019-04-03T19:37:11.305Z,95170.86
2019-04-03T19:39:42.981Z,95193.98
2019-04-03T19:42:14.597Z,95193.57
2019-04-03T19:44:47.189Z,95210.16
2019-04-03T19:47:19.175Z,95217.39
2019-04-03T19:49:50.778Z,95234.67
2019-04-03T19:52:22.195Z,95239.07
2019-04-03T19:54:53.774Z,95245.51
2019-04-03T19:57:26.803Z,95245.12
2019-04-03T19:59:58.380Z,95242.27
2019-04-03T20:02:29.921Z,95249.37
2019-04-03T20:05:01.340Z,95249.37
2019-04-03T20:07:33.145Z,95237.48
2019-04-03T20:10:05.785Z,95247.17
2019-04-03T20:12:37.697Z,95256.90
2019-04-03T20:15:11.331Z,95266.10
2019-04-03T20:17:42.843Z,95269.59
2019-04-03T20:20:15.778Z,95273.02
2019-04-03T20:22:47.319Z,95279.89
2019-04-03T20:25:19.956Z,95300.61
2019-04-03T20:27:52.448Z,95306.49
2019-04-03T20:30:24.246Z,95299.64
2019-04-03T20:32:55.916Z,95314.52
2019-04-03T20:35:27.503Z,95319.11
2019-04-03T20:37:59.772Z,95324.01
2019-04-03T20:40:32.099Z,95351.52
2019-04-03T20:43:04.071Z,95352.50
2019-04-03T20:45:36.172Z,95374.52
2019-04-03T20:48:07.670Z,95386.53
2019-04-03T20:50:38.996Z,95404.71
2019-04-03T20:53:10.370Z,95415.56
2019-04-03T20:55:42.227Z,95427.66
2019-04-03T20:58:13.613Z,95427.59
2019-04-03T21:00:45.064Z,95437.06
2019-04-03T21:03:16.904Z,95433.27
2019-04-03T21:05:48.881Z,95428.76
2019-04-03T21:08:20.828Z,95426.34
2019-04-03T21:10:52.383Z,95423.57
2019-04-03T21:13:23.819Z,95433.40
2019-04-03T21:15:55.319Z,95436.17
2019-04-03T21:18:27.183Z,95437.72
2019-04-03T21:21:01.459Z,95443.01
2019-04-03T21:23:33.522Z,95435.23
2019-04-03T21:26:07.296Z,95438.81
2019-04-03T21:28:40.834Z,95445.97
2019-04-03T21:31:12.111Z,95454.39
2019-04-03T21:33:45.027Z,95458.22
2019-04-03T21:36:16.654Z,95456.16
2019-04-03T21:38:48.054Z,95470.34
2019-04-03T21:41:20.775Z,95465.95
2019-04-03T21:43:55.492Z,95480.38
2019-04-03T21:46:27.220Z,95488.78
2019-04-03T21:48:58.821Z,95473.19
2019-04-03T21:51:30.217Z,95474.95
2019-04-03T21:54:01.732Z,95480.48
2019-04-03T21:56:33.419Z,95486.91
2019-04-03T21:59:06.257Z,95483.51
2019-04-03T22:01:37.843Z,95490.53
2019-04-03T22:04:09.320Z,95478.97
2019-04-03T22:06:40.768Z,95484.15
2019-04-03T22:09:13.733Z,95490.17
2019-04-03T22:11:45.333Z,95489.27
2019-04-03T22:14:16.963Z,95494.09
2019-04-03T22:16:50.593Z,95494.48
2019-04-03T22:19:21.576Z,95489.72
2019-04-03T22:21:53.030Z,95493.72
2019-04-03T22:24:24.403Z,95496.37
2019-04-03T22:26:55.870Z,95492.03
2019-04-03T22:29:27.260Z,95491.14
2019-04-03T22:31:58.548Z,95490.72
2019-04-03T22:34:30.550Z,95489.00
2019-04-03T22:37:03.882Z,95483.02
2019-04-03T22:39:34.964Z,95478.79
2019-04-03T22:42:06.357Z,95468.92
2019-04-03T22:44:37.635Z,95460.47
2019-04-03T22:47:08.850Z,95454.81
2019-04-03T22:49:40.719Z,95455.77
2019-04-03T22:52:12.003Z,95449.27
2019-04-03T22:54:44.375Z,95446.67
2019-04-03T22:57:15.920Z,95448.06
2019-04-03T22:59:47.651Z,95448.59
2019-04-03T23:02:18.977Z,95453.66
2019-04-03T23:04:50.824Z,95447.72
2019-04-03T23:07:22.110Z,95446.95
2019-04-03T23:09:56.471Z,95437.72
2019-04-03T23:12:26.555Z,95445.01
2019-04-03T23:14:58.096Z,95451.81
2019-04-03T23:17:29.447Z,95450.70
2019-04-03T23:20:00.768Z,95435.61
2019-04-03T23:22:32.471Z,95431.29
2019-04-03T23:25:04.148Z,95441.91
2019-04-03T23:27:35.629Z,95434.25
2019-04-03T23:30:10.054Z,95427.39
2019-04-03T23:32:41.045Z,95423.92
2019-04-03T23:35:12.515Z,95426.91
2019-04-03T23:37:44.533Z,95429.15
2019-04-03T23:40:16.439Z,95430.03
2019-04-03T23:42:47.731Z,95434.31
2019-04-03T23:45:20.411Z,95421.43
2019-04-03T23:47:52.210Z,95423.08
2019-04-03T23:50:23.705Z,95421.81
2019-04-03T23:52:55.656Z,95419.33
2019-04-03T23:55:27.365Z,95418.97
2019-04-03T23:57:59.341Z,95415.97
